Time;durP1;ratioP1;P1;durP2;ratioP2;P2;SDS_P1;SDS_P2;PMS_P1;PMS_P2;Temp;Humidity;BMP_temperature;BMP_pressure;BME280_temperature;BME280_humidity;BME280_pressure;Samples;Min_cycle;Max_cycle;Signal;HPM_P1;HPM_P2
2023/03/20 00:02:03;;;;;;;9.90;8.18;;;10.60;99.90;;;;;;4979685;28;20042;-74
2023/03/20 00:04:29;;;;;;;16.77;9.23;;;10.60;99.90;;;;;;4965311;28;20498;-74
2023/03/20 00:06:55;;;;;;;12.55;8.50;;;10.60;99.90;;;;;;4964319;28;20049;-74
2023/03/20 00:09:21;;;;;;;12.70;9.73;;;10.70;99.90;;;;;;4952600;28;20057;-75
2023/03/20 00:11:48;;;;;;;11.07;8.23;;;10.70;99.90;;;;;;4979281;28;20113;-74
2023/03/20 00:14:14;;;;;;;12.27;9.13;;;10.60;99.90;;;;;;4931496;28;20055;-74
2023/03/20 00:16:41;;;;;;;14.48;9.50;;;10.60;99.90;;;;;;4949786;28;20042;-74
2023/03/20 00:19:16;;;;;;;10.80;8.45;;;10.60;99.90;;;;;;4951145;28;20038;-74
2023/03/20 00:21:44;;;;;;;13.35;8.80;;;10.70;99.90;;;;;;4959441;28;20061;-74
2023/03/20 00:24:10;;;;;;;13.18;9.02;;;10.70;99.90;;;;;;4962727;28;20050;-74
2023/03/20 00:26:37;;;;;;;11.88;9.18;;;10.70;99.90;;;;;;4967013;28;20123;-75
2023/03/20 00:29:03;;;;;;;10.63;8.43;;;10.70;99.90;;;;;;4930814;28;20054;-75
2023/03/20 00:31:36;;;;;;;12.40;8.85;;;10.70;99.90;;;;;;4949028;28;20453;-75
2023/03/20 00:34:04;;;;;;;12.13;8.45;;;10.70;99.90;;;;;;4936548;28;20054;-74
2023/03/20 00:36:30;;;;;;;12.57;9.27;;;10.60;99.90;;;;;;4963195;28;20038;-75
2023/03/20 00:38:58;;;;;;;12.23;8.82;;;10.60;99.90;;;;;;4947903;28;20753;-74
2023/03/20 00:41:32;;;;;;;11.25;8.07;;;10.70;99.90;;;;;;4978711;28;20410;-74
2023/03/20 00:44:00;;;;;;;10.13;8.07;;;10.80;99.90;;;;;;4948791;28;20057;-74
2023/03/20 00:46:25;;;;;;;10.27;8.40;;;10.70;99.90;;;;;;4966874;28;20042;-74
2023/03/20 00:48:52;;;;;;;10.75;7.93;;;10.70;99.90;;;;;;4981284;28;20367;-74
2023/03/20 00:51:18;;;;;;;11.88;9.10;;;10.80;99.90;;;;;;4963702;28;20105;-74
2023/03/20 00:53:43;;;;;;;11.88;8.02;;;10.80;99.90;;;;;;4967461;28;20058;-75
2023/03/20 00:56:30;;;;;;;12.77;7.68;;;10.80;99.90;;;;;;4974188;28;20051;-74
2023/03/20 00:58:56;;;;;;;10.48;7.40;;;10.80;99.90;;;;;;4984385;28;20475;-74
2023/03/20 01:01:22;;;;;;;11.10;7.82;;;10.80;99.90;;;;;;4951875;28;20129;-74
2023/03/20 01:03:48;;;;;;;11.68;8.05;;;10.80;99.90;;;;;;4980423;28;20723;-75
2023/03/20 01:06:14;;;;;;;12.73;8.02;;;10.80;99.90;;;;;;4954998;28;20386;-75
2023/03/20 01:08:40;;;;;;;12.63;9.10;;;10.80;99.90;;;;;;4980976;28;20050;-74
2023/03/20 01:11:08;;;;;;;12.32;8.40;;;10.80;99.90;;;;;;4952056;28;20418;-74
2023/03/20 01:13:33;;;;;;;12.32;8.68;;;10.90;99.90;;;;;;4966792;28;20054;-74
2023/03/20 01:15:59;;;;;;;11.68;8.68;;;10.90;99.90;;;;;;4973144;28;20052;-75
2023/03/20 01:18:25;;;;;;;16.33;10.85;;;10.80;99.90;;;;;;4959823;28;20076;-75
2023/03/20 01:20:54;;;;;;;16.13;10.32;;;10.80;99.90;;;;;;4992711;28;20046;-74
2023/03/20 01:23:21;;;;;;;16.73;11.73;;;10.80;99.90;;;;;;4990621;28;20042;-75
2023/03/20 01:25:48;;;;;;;19.08;12.27;;;10.90;99.90;;;;;;4970791;28;20057;-75
2023/03/20 01:28:21;;;;;;;17.42;11.60;;;10.80;99.90;;;;;;4942415;28;20050;-74
2023/03/20 01:30:47;;;;;;;20.17;12.93;;;10.70;99.90;;;;;;4956833;28;20372;-74
2023/03/20 01:33:15;;;;;;;16.77;12.30;;;10.80;99.90;;;;;;4974981;28;20046;-74
2023/03/20 01:35:41;;;;;;;19.13;13.63;;;10.80;99.90;;;;;;4950852;28;20055;-75
2023/03/20 01:38:33;;;;;;;23.92;15.23;;;10.70;99.90;;;;;;4958963;28;20506;-75
2023/03/20 01:41:04;;;;;;;22.50;14.68;;;10.70;99.90;;;;;;4959320;28;20072;-74
2023/03/20 01:43:29;;;;;;;21.52;15.52;;;10.70;99.90;;;;;;4973546;28;20039;-74
2023/03/20 01:46:05;;;;;;;23.77;16.25;;;10.70;99.90;;;;;;4955066;28;20047;-74
2023/03/20 01:48:49;;;;;;;26.35;18.40;;;10.60;99.90;;;;;;4993353;28;20038;-75
2023/03/20 01:51:25;;;;;;;25.90;17.13;;;10.60;99.90;;;;;;4988093;28;20046;-74
2023/03/20 01:54:00;;;;;;;26.98;18.20;;;10.60;99.90;;;;;;4969620;28;20042;-75
2023/03/20 01:56:25;;;;;;;29.58;18.65;;;10.60;99.90;;;;;;4987703;28;20538;-74
2023/03/20 01:58:59;;;;;;;33.22;20.55;;;10.60;99.90;;;;;;4961110;28;20053;-74
2023/03/20 02:01:26;;;;;;;34.65;21.60;;;10.60;99.90;;;;;;4976796;28;20046;-75
2023/03/20 02:03:52;;;;;;;35.65;22.40;;;10.50;99.90;;;;;;4973567;28;20459;-74
2023/03/20 02:06:18;;;;;;;39.10;24.63;;;10.50;99.90;;;;;;4953960;28;20121;-74
2023/03/20 02:08:49;;;;;;;36.60;23.80;;;10.50;99.90;;;;;;4960104;28;20077;-74
2023/03/20 02:11:15;;;;;;;39.92;24.48;;;10.40;99.90;;;;;;4961088;28;20444;-74
2023/03/20 02:13:41;;;;;;;40.83;24.40;;;10.40;99.90;;;;;;4984575;28;20096;-74
2023/03/20 02:16:09;;;;;;;38.50;25.70;;;10.40;99.90;;;;;;4981426;28;20054;-75
2023/03/20 02:18:37;;;;;;;39.10;26.60;;;10.20;99.90;;;;;;4972800;28;20337;-74
2023/03/20 02:21:41;;;;;;;39.85;24.73;;;10.10;99.90;;;;;;4966192;28;20109;-74
2023/03/20 02:24:28;;;;;;;42.90;26.13;;;10.00;99.90;;;;;;4985390;28;20116;-74
2023/03/20 02:26:54;;;;;;;44.13;25.45;;;9.90;99.90;;;;;;4962095;28;20078;-74
2023/03/20 02:29:47;;;;;;;46.35;26.73;;;9.90;99.90;;;;;;4986529;28;20089;-73
2023/03/20 02:32:51;;;;;;;40.20;24.17;;;9.80;99.90;;;;;;4976064;28;20055;-74
2023/03/20 02:35:42;;;;;;;43.08;24.85;;;9.90;99.90;;;;;;4970039;28;20082;-74
2023/03/20 02:38:48;;;;;;;47.38;26.58;;;9.80;99.90;;;;;;4973804;28;20057;-74
2023/03/20 02:41:41;;;;;;;57.92;30.15;;;9.90;99.90;;;;;;4985373;28;20054;-74
2023/03/20 02:44:31;;;;;;;50.97;28.13;;;9.80;99.90;;;;;;4965546;28;20054;-74
2023/03/20 02:47:03;;;;;;;55.50;29.20;;;9.80;99.90;;;;;;4976950;28;20751;-74
2023/03/20 02:49:40;;;;;;;61.92;32.15;;;9.80;99.90;;;;;;4979087;28;20157;-74
2023/03/20 02:52:09;;;;;;;56.13;29.92;;;9.70;99.90;;;;;;4985409;28;20351;-74
2023/03/20 02:55:04;;;;;;;58.35;29.73;;;9.80;99.90;;;;;;4973065;28;20047;-74
2023/03/20 02:58:05;;;;;;;62.55;30.30;;;9.70;99.90;;;;;;4966759;28;20061;-74
2023/03/20 03:01:05;;;;;;;58.50;30.23;;;9.80;99.90;;;;;;4978207;28;20467;-74
2023/03/20 03:03:34;;;;;;;53.28;29.80;;;9.80;99.90;;;;;;4970856;28;20047;-74
2023/03/20 03:06:13;;;;;;;57.45;29.33;;;9.90;99.90;;;;;;4947923;28;20197;-74
2023/03/20 03:08:42;;;;;;;55.47;27.70;;;9.80;99.90;;;;;;4951662;28;20046;-74
2023/03/20 03:11:07;;;;;;;;;;;9.80;99.90;;;;;;4947414;28;20046;-74
2023/03/20 03:13:39;;;;;;;49.75;26.17;;;9.90;99.90;;;;;;4975507;28;19949;-74
2023/03/20 03:16:08;;;;;;;58.40;30.83;;;9.90;99.90;;;;;;4972579;28;20042;-74
2023/03/20 03:18:34;;;;;;;;;;;9.70;99.90;;;;;;4970561;28;20085;-74
2023/03/20 03:21:01;;;;;;;61.85;31.05;;;9.80;99.90;;;;;;4958368;28;19963;-74
2023/03/20 03:23:47;;;;;;;63.97;31.23;;;9.70;99.90;;;;;;4972309;28;20049;-74
2023/03/20 03:26:23;;;;;;;56.08;29.02;;;9.70;99.90;;;;;;4961337;28;20085;-74
2023/03/20 03:28:51;;;;;;;66.45;32.08;;;9.80;99.90;;;;;;4955443;28;20055;-74
2023/03/20 03:31:17;;;;;;;;;;;9.60;99.90;;;;;;4972477;28;20725;-75
2023/03/20 03:33:50;;;;;;;68.28;32.63;;;9.70;99.90;;;;;;4962217;28;19949;-75
2023/03/20 03:36:28;;;;;;;61.30;30.05;;;9.60;99.90;;;;;;4983761;28;20498;-74
2023/03/20 03:39:01;;;;;;;68.70;32.40;;;9.70;99.90;;;;;;4990738;28;20038;-74
2023/03/20 03:41:48;;;;;;;84.55;35.75;;;9.60;99.90;;;;;;4950064;28;20053;-74
2023/03/20 03:44:22;;;;;;;67.97;32.20;;;9.60;99.90;;;;;;4964211;28;20443;-74
2023/03/20 03:47:01;;;;;;;75.40;36.05;;;9.70;99.90;;;;;;4967546;28;20599;-74
2023/03/20 03:49:30;;;;;;;77.32;35.55;;;9.60;99.90;;;;;;4969487;28;20046;-75
2023/03/20 03:51:56;;;;;;;;;;;9.60;99.90;;;;;;4963033;28;20553;-75
2023/03/20 03:54:43;;;;;;;73.90;33.70;;;9.70;99.90;;;;;;4984687;28;19977;-74
2023/03/20 03:57:09;;;;;;;72.95;34.60;;;9.70;99.90;;;;;;4968207;28;20043;-74
2023/03/20 03:59:40;;;;;;;66.43;32.05;;;9.60;99.90;;;;;;4947941;28;20213;-75
2023/03/20 04:02:07;;;;;;;60.30;28.90;;;9.60;99.90;;;;;;4968002;28;20484;-74
2023/03/20 04:04:34;;;;;;;61.75;27.05;;;9.60;99.90;;;;;;4943747;28;20050;-74
2023/03/20 04:07:00;;;;;;;57.03;27.92;;;9.60;99.90;;;;;;4973711;28;21031;-75
2023/03/20 04:09:26;;;;;;;62.10;28.27;;;9.50;99.90;;;;;;4978173;28;20051;-74
2023/03/20 04:11:52;;;;;;;56.20;26.42;;;9.40;99.90;;;;;;4959694;28;20055;-75
2023/03/20 04:14:17;;;;;;;60.55;29.25;;;9.40;99.90;;;;;;4944637;28;20047;-74
2023/03/20 04:16:43;;;;;;;53.28;26.27;;;9.40;99.90;;;;;;4967483;28;20050;-74
2023/03/20 04:19:09;;;;;;;53.92;25.95;;;9.30;99.90;;;;;;4971275;28;20043;-74
2023/03/20 04:21:35;;;;;;;56.33;26.30;;;9.30;99.90;;;;;;4983064;28;20355;-75
2023/03/20 04:24:01;;;;;;;54.33;26.33;;;9.40;99.90;;;;;;4982879;28;20046;-74
2023/03/20 04:26:26;;;;;;;54.03;25.35;;;9.40;99.90;;;;;;4943682;28;20056;-74
2023/03/20 04:28:52;;;;;;;50.42;24.23;;;9.50;99.90;;;;;;4969301;28;20074;-74
2023/03/20 04:31:18;;;;;;;50.35;23.98;;;9.50;99.90;;;;;;4969052;28;20042;-74
2023/03/20 04:33:44;;;;;;;49.00;23.73;;;9.40;99.90;;;;;;4959169;28;20046;-74
2023/03/20 04:36:11;;;;;;;53.05;25.23;;;9.50;99.90;;;;;;4981440;28;20495;-74
2023/03/20 04:38:37;;;;;;;50.53;24.45;;;9.40;99.90;;;;;;4967089;28;20058;-74
2023/03/20 04:41:03;;;;;;;53.88;23.95;;;9.40;99.90;;;;;;4988165;28;20424;-74
2023/03/20 04:43:29;;;;;;;51.97;23.80;;;9.30;99.90;;;;;;4970453;28;20074;-74
2023/03/20 04:45:55;;;;;;;44.17;22.38;;;9.30;99.90;;;;;;4986677;28;20118;-74
2023/03/20 04:48:20;;;;;;;50.25;22.38;;;9.30;99.90;;;;;;4933648;28;20042;-74
2023/03/20 04:50:47;;;;;;;46.05;21.73;;;9.30;99.90;;;;;;4950902;28;20498;-74
2023/03/20 04:53:14;;;;;;;46.65;22.77;;;9.30;99.90;;;;;;4950030;28;20109;-74
2023/03/20 04:55:40;;;;;;;46.63;22.20;;;9.30;99.90;;;;;;4958842;28;20042;-74
2023/03/20 04:58:06;;;;;;;42.25;20.95;;;9.20;99.90;;;;;;4968549;28;20064;-74
2023/03/20 05:00:32;;;;;;;50.95;21.55;;;9.20;99.90;;;;;;4972588;28;20404;-74
2023/03/20 05:02:58;;;;;;;48.80;23.83;;;9.20;99.90;;;;;;4958556;28;20049;-74
2023/03/20 05:05:24;;;;;;;45.58;22.08;;;9.10;99.90;;;;;;4952135;28;20050;-74
2023/03/20 05:07:50;;;;;;;54.97;23.92;;;9.20;99.90;;;;;;4976347;28;20050;-74
2023/03/20 05:10:16;;;;;;;52.70;25.20;;;9.20;99.90;;;;;;4986189;28;20104;-74
2023/03/20 05:12:42;;;;;;;54.13;24.35;;;9.20;99.90;;;;;;4976809;28;20077;-74
2023/03/20 05:15:08;;;;;;;57.72;24.42;;;9.10;99.90;;;;;;4963895;28;20050;-74
2023/03/20 05:17:34;;;;;;;57.78;24.70;;;9.10;99.90;;;;;;4958806;28;20065;-74
2023/03/20 05:20:00;;;;;;;51.63;25.25;;;9.10;99.90;;;;;;4944030;28;20410;-74
2023/03/20 05:22:26;;;;;;;51.60;23.08;;;9.20;99.90;;;;;;4985396;28;20123;-74
2023/03/20 05:24:51;;;;;;;53.88;26.10;;;9.20;99.90;;;;;;4991686;28;20149;-74
2023/03/20 05:27:17;;;;;;;52.80;23.90;;;9.10;99.90;;;;;;4975736;28;20057;-74
2023/03/20 05:29:43;;;;;;;59.03;25.65;;;9.10;99.90;;;;;;4989887;28;20046;-75
2023/03/20 05:32:09;;;;;;;51.40;23.30;;;9.10;99.90;;;;;;4978474;28;20043;-75
2023/03/20 05:34:35;;;;;;;54.53;25.90;;;9.20;99.90;;;;;;4967200;28;20101;-73
2023/03/20 05:37:01;;;;;;;50.67;24.25;;;9.20;99.90;;;;;;4962673;28;20058;-73
2023/03/20 05:39:26;;;;;;;56.15;26.73;;;9.20;99.90;;;;;;4944679;28;20050;-73
2023/03/20 05:41:52;;;;;;;54.35;25.15;;;9.10;99.90;;;;;;4973521;28;20046;-74
2023/03/20 05:44:18;;;;;;;59.15;25.17;;;9.20;99.90;;;;;;4943174;28;20042;-74
2023/03/20 05:46:44;;;;;;;60.53;27.23;;;9.20;99.90;;;;;;4955449;28;20053;-74
2023/03/20 05:49:09;;;;;;;54.92;25.30;;;9.10;99.90;;;;;;4966750;28;20046;-74
2023/03/20 05:51:36;;;;;;;53.75;25.90;;;9.20;99.90;;;;;;4988571;28;20105;-74
2023/03/20 05:54:01;;;;;;;54.67;25.38;;;9.10;99.90;;;;;;4986161;28;20425;-74
2023/03/20 05:56:27;;;;;;;53.72;25.85;;;9.20;99.90;;;;;;4963556;28;20137;-75
2023/03/20 05:58:53;;;;;;;49.33;23.50;;;9.30;99.90;;;;;;4976224;28;20043;-74
2023/03/20 06:01:20;;;;;;;46.67;22.55;;;9.30;99.90;;;;;;4980439;28;20116;-74
2023/03/20 06:03:47;;;;;;;47.40;21.27;;;9.40;99.90;;;;;;4949400;28;20042;-74
2023/03/20 06:06:14;;;;;;;46.70;22.23;;;9.40;99.90;;;;;;4957702;28;20054;-74
2023/03/20 06:08:40;;;;;;;39.47;20.98;;;9.50;99.90;;;;;;4956229;28;20046;-74
2023/03/20 06:11:06;;;;;;;40.42;19.98;;;9.40;99.90;;;;;;4973677;28;20082;-74
2023/03/20 06:13:32;;;;;;;40.15;21.25;;;9.40;99.90;;;;;;4970388;28;20055;-74
2023/03/20 06:15:57;;;;;;;41.25;20.05;;;9.50;99.90;;;;;;4972888;28;20815;-75
2023/03/20 06:18:23;;;;;;;39.35;20.60;;;9.50;99.90;;;;;;4980109;28;20035;-74
2023/03/20 06:20:52;;;;;;;37.85;19.45;;;9.50;99.90;;;;;;4967347;28;20125;-74
2023/03/20 06:23:18;;;;;;;39.78;20.70;;;9.50;99.90;;;;;;4963656;28;20049;-74
2023/03/20 06:25:44;;;;;;;37.50;19.77;;;9.60;99.90;;;;;;4971294;28;20043;-74
2023/03/20 06:28:10;;;;;;;37.58;18.73;;;9.60;99.90;;;;;;4986113;28;20065;-75
2023/03/20 06:30:36;;;;;;;39.90;20.45;;;9.70;99.90;;;;;;4971545;28;20054;-72
2023/03/20 06:33:02;;;;;;;37.63;18.73;;;9.70;99.90;;;;;;4985229;28;20050;-73
2023/03/20 06:35:30;;;;;;;36.25;20.02;;;9.70;99.90;;;;;;4985375;28;20077;-73
2023/03/20 06:37:56;;;;;;;42.00;20.13;;;9.70;99.90;;;;;;4980151;28;20481;-73
2023/03/20 06:40:22;;;;;;;40.78;21.40;;;9.70;99.90;;;;;;4955887;28;20050;-74
2023/03/20 06:42:48;;;;;;;41.25;21.52;;;9.60;99.90;;;;;;4975285;28;20049;-75
2023/03/20 06:45:14;;;;;;;37.55;19.40;;;9.70;99.90;;;;;;4989452;28;20050;-75
2023/03/20 06:47:40;;;;;;;41.65;21.35;;;9.70;99.90;;;;;;4984855;28;20058;-74
2023/03/20 06:50:07;;;;;;;40.63;20.50;;;9.80;99.90;;;;;;4979738;28;20053;-75
2023/03/20 06:52:32;;;;;;;38.95;20.40;;;9.80;99.90;;;;;;4985834;28;20380;-74
2023/03/20 06:54:58;;;;;;;37.55;19.27;;;9.70;99.90;;;;;;4936532;28;20487;-74
2023/03/20 06:57:24;;;;;;;38.53;21.75;;;9.70;99.90;;;;;;4940284;28;20467;-74
2023/03/20 06:59:51;;;;;;;42.00;22.38;;;9.70;99.90;;;;;;4965759;28;20781;-75
2023/03/20 07:02:17;;;;;;;41.33;21.95;;;9.70;99.90;;;;;;4966945;28;20096;-74
2023/03/20 07:04:43;;;;;;;39.33;20.83;;;9.60;99.90;;;;;;4964503;28;20050;-74
2023/03/20 07:07:08;;;;;;;39.38;21.55;;;9.60;99.90;;;;;;4956171;28;20767;-74
2023/03/20 07:09:35;;;;;;;36.08;19.52;;;9.70;99.90;;;;;;4940147;28;20050;-73
2023/03/20 07:12:01;;;;;;;44.03;21.17;;;9.70;99.90;;;;;;4937913;28;20046;-75
2023/03/20 07:14:27;;;;;;;37.33;21.83;;;9.80;99.90;;;;;;4975156;28;20053;-74
2023/03/20 07:16:53;;;;;;;39.97;21.15;;;9.70;99.90;;;;;;4981323;28;20641;-74
2023/03/20 07:19:19;;;;;;;39.92;20.67;;;9.70;99.90;;;;;;4964145;28;20053;-74
2023/03/20 07:21:45;;;;;;;49.85;23.45;;;9.80;99.90;;;;;;4988456;28;20043;-73
2023/03/20 07:24:10;;;;;;;41.63;21.05;;;9.70;99.90;;;;;;4948241;28;20085;-74
2023/03/20 07:26:36;;;;;;;46.67;22.60;;;9.80;99.90;;;;;;4975670;28;20078;-75
2023/03/20 07:29:02;;;;;;;43.05;20.23;;;9.80;99.90;;;;;;4966364;28;20475;-74
2023/03/20 07:31:29;;;;;;;44.42;22.40;;;9.80;99.90;;;;;;4943700;28;20047;-73
2023/03/20 07:33:55;;;;;;;46.42;22.63;;;9.80;99.90;;;;;;4945860;28;20054;-74
2023/03/20 07:36:21;;;;;;;48.92;22.83;;;9.80;99.90;;;;;;4952579;28;20108;-75
2023/03/20 07:38:47;;;;;;;41.65;21.33;;;9.90;99.90;;;;;;4967927;28;20416;-74
2023/03/20 07:41:13;;;;;;;42.15;21.92;;;9.70;99.90;;;;;;4958521;28;20137;-74
2023/03/20 07:43:38;;;;;;;45.10;22.35;;;9.70;99.90;;;;;;4961026;28;20061;-74
2023/03/20 07:46:05;;;;;;;41.90;20.95;;;9.80;99.90;;;;;;4964057;28;20051;-74
2023/03/20 07:48:31;;;;;;;44.00;22.08;;;9.80;99.90;;;;;;4967330;28;20112;-73
2023/03/20 07:50:57;;;;;;;44.92;22.17;;;9.90;99.90;;;;;;4974879;28;20054;-74
2023/03/20 07:53:22;;;;;;;46.03;22.35;;;10.00;99.90;;;;;;4962828;28;20431;-74
2023/03/20 07:55:48;;;;;;;50.25;23.65;;;9.90;99.90;;;;;;4976029;28;20557;-74
2023/03/20 07:58:14;;;;;;;50.95;24.20;;;9.90;99.90;;;;;;4959021;28;20105;-74
2023/03/20 08:00:40;;;;;;;47.92;23.38;;;9.80;99.90;;;;;;4996248;28;20042;-74
2023/03/20 08:03:05;;;;;;;51.08;24.33;;;9.80;99.90;;;;;;4956714;28;20055;-73
2023/03/20 08:05:32;;;;;;;46.38;23.25;;;9.80;99.90;;;;;;4958686;28;20131;-73
2023/03/20 08:07:58;;;;;;;50.75;23.75;;;9.90;99.90;;;;;;4967415;28;20078;-73
2023/03/20 08:10:23;;;;;;;50.20;23.58;;;9.90;99.90;;;;;;4973893;28;20089;-74
2023/03/20 08:12:49;;;;;;;51.50;22.75;;;9.80;99.90;;;;;;4948005;28;20053;-73
2023/03/20 08:15:17;;;;;;;43.72;22.70;;;9.90;99.90;;;;;;4963336;28;20054;-74
2023/03/20 08:17:44;;;;;;;50.90;25.08;;;9.90;99.90;;;;;;4955352;28;20712;-73
2023/03/20 08:20:10;;;;;;;48.33;22.27;;;10.00;99.90;;;;;;4953265;28;20082;-73
2023/03/20 08:22:36;;;;;;;49.47;23.38;;;10.00;99.90;;;;;;4952758;28;20809;-73
2023/03/20 08:25:02;;;;;;;45.40;22.25;;;10.00;99.90;;;;;;4980267;28;20129;-74
2023/03/20 08:27:28;;;;;;;45.97;22.80;;;10.00;99.90;;;;;;4968428;28;20047;-74
2023/03/20 08:29:53;;;;;;;47.83;23.60;;;10.00;99.90;;;;;;4976115;28;20089;-74
2023/03/20 08:32:19;;;;;;;43.20;22.52;;;10.10;99.90;;;;;;4953929;28;20655;-74
2023/03/20 08:34:46;;;;;;;50.13;24.13;;;10.10;99.90;;;;;;4962793;28;20062;-74
2023/03/20 08:37:12;;;;;;;48.58;22.98;;;10.10;99.90;;;;;;4973948;28;20053;-75
2023/03/20 08:39:38;;;;;;;44.70;24.00;;;10.10;99.90;;;;;;4949115;28;20038;-74
2023/03/20 08:42:05;;;;;;;48.72;22.88;;;10.00;99.90;;;;;;4967183;28;20743;-75
2023/03/20 08:44:31;;;;;;;49.70;24.00;;;10.00;99.90;;;;;;4982236;28;20057;-76
2023/03/20 08:46:57;;;;;;;45.35;24.15;;;10.00;99.90;;;;;;4994112;28;20050;-75
2023/03/20 08:49:22;;;;;;;48.42;23.45;;;10.00;99.90;;;;;;4982140;28;20108;-76
2023/03/20 08:51:48;;;;;;;48.38;24.48;;;10.00;99.90;;;;;;4966181;28;20062;-75
2023/03/20 08:54:17;;;;;;;47.90;25.35;;;10.00;99.90;;;;;;4959491;28;20062;-75
2023/03/20 08:56:43;;;;;;;;;;;10.10;99.90;;;;;;4971858;28;20047;-75
2023/03/20 08:59:10;;;;;;;45.67;23.48;;;10.30;99.90;;;;;;4987622;28;19920;-74
2023/03/20 09:01:37;;;;;;;45.97;23.30;;;10.30;99.90;;;;;;4976785;28;20089;-73
2023/03/20 09:04:03;;;;;;;42.92;21.67;;;10.50;99.90;;;;;;4982147;28;20065;-74
2023/03/20 09:06:29;;;;;;;46.20;23.42;;;10.50;99.90;;;;;;4958563;28;20057;-75
2023/03/20 09:08:56;;;;;;;40.25;22.02;;;10.40;99.90;;;;;;4950874;28;20189;-74
2023/03/20 09:11:22;;;;;;;43.72;22.65;;;10.40;99.90;;;;;;4965583;28;20082;-75
2023/03/20 09:13:48;;;;;;;36.67;22.50;;;10.30;99.90;;;;;;4966744;28;20073;-75
2023/03/20 09:16:15;;;;;;;39.42;22.42;;;10.30;99.90;;;;;;4926384;28;20535;-73
2023/03/20 09:18:41;;;;;;;36.60;20.90;;;10.30;99.90;;;;;;4933177;28;20042;-74
2023/03/20 09:21:07;;;;;;;37.45;22.08;;;10.30;99.90;;;;;;4981105;28;20101;-74
2023/03/20 09:23:33;;;;;;;40.85;22.45;;;10.20;99.90;;;;;;4981068;28;20559;-75
2023/03/20 09:25:59;;;;;;;35.90;20.33;;;10.20;99.90;;;;;;4958249;28;20038;-71
2023/03/20 09:28:25;;;;;;;37.90;21.85;;;10.20;99.90;;;;;;4978428;28;20651;-73
2023/03/20 09:30:57;;;;;;;34.72;19.77;;;10.10;99.90;;;;;;4983640;28;20042;-74
2023/03/20 09:33:23;;;;;;;37.42;21.38;;;10.00;99.90;;;;;;4955017;28;20097;-75
2023/03/20 09:35:50;;;;;;;39.80;21.23;;;10.00;99.90;;;;;;4986648;28;20530;-75
2023/03/20 09:38:15;;;;;;;38.13;21.80;;;9.90;99.90;;;;;;4980875;28;20061;-75
2023/03/20 09:40:55;;;;;;;37.63;21.48;;;9.90;99.90;;;;;;4948819;28;20042;-74
2023/03/20 09:43:52;;;;;;;38.17;22.60;;;9.90;99.90;;;;;;4945186;28;20050;-75
2023/03/20 09:46:36;;;;;;;37.13;21.00;;;10.00;99.90;;;;;;4993090;28;20736;-74
2023/03/20 09:49:24;;;;;;;34.13;20.48;;;9.90;99.90;;;;;;4966988;28;20128;-74
2023/03/20 09:52:00;;;;;;;35.72;19.75;;;10.00;99.90;;;;;;4980692;28;20042;-74
2023/03/20 09:54:37;;;;;;;32.38;19.00;;;10.10;99.90;;;;;;4986940;28;20069;-74
2023/03/20 09:57:03;;;;;;;35.47;20.52;;;10.00;99.90;;;;;;4975903;28;20125;-75
2023/03/20 09:59:28;;;;;;;36.50;19.63;;;10.00;99.90;;;;;;4991992;28;20062;-74
2023/03/20 10:01:56;;;;;;;36.97;21.15;;;10.10;99.90;;;;;;4960801;28;20082;-74
2023/03/20 10:04:25;;;;;;;35.70;20.57;;;10.10;99.90;;;;;;4965149;28;20050;-74
2023/03/20 10:06:50;;;;;;;36.10;20.75;;;10.20;99.90;;;;;;4982847;28;20093;-75
2023/03/20 10:09:27;;;;;;;37.90;21.50;;;10.00;99.90;;;;;;4949342;28;20066;-75
2023/03/20 10:12:13;;;;;;;39.25;22.13;;;10.00;99.90;;;;;;4955428;28;20051;-75
2023/03/20 10:14:51;;;;;;;35.50;21.23;;;10.00;99.90;;;;;;4966434;28;20050;-76
2023/03/20 10:17:35;;;;;;;36.10;20.05;;;10.00;99.90;;;;;;4968004;28;20078;-75
2023/03/20 10:20:10;;;;;;;37.13;20.75;;;10.10;99.90;;;;;;4974311;28;20043;-75
2023/03/20 10:22:44;;;;;;;38.92;21.85;;;10.10;99.90;;;;;;4982576;28;20050;-75
2023/03/20 10:25:15;;;;;;;34.08;19.30;;;10.10;99.90;;;;;;4959594;28;20050;-76
2023/03/20 10:28:03;;;;;;;34.33;20.58;;;10.10;99.90;;;;;;4980324;28;20050;-75
2023/03/20 10:30:53;;;;;;;39.65;21.80;;;10.20;99.90;;;;;;4989527;28;20050;-75
2023/03/20 10:33:25;;;;;;;30.35;19.02;;;10.20;99.90;;;;;;4983902;28;20084;-75
2023/03/20 10:36:00;;;;;;;31.63;18.98;;;10.20;99.90;;;;;;4968481;28;20074;-74
2023/03/20 10:38:39;;;;;;;34.70;20.50;;;10.20;99.90;;;;;;4973803;28;20051;-74
2023/03/20 10:41:09;;;;;;;30.17;17.05;;;10.10;99.90;;;;;;4983901;28;20355;-74
2023/03/20 10:43:35;;;;;;;27.75;16.40;;;10.20;99.90;;;;;;4960734;28;20418;-75
2023/03/20 10:46:04;;;;;;;32.38;18.17;;;10.10;99.90;;;;;;4968776;28;20054;-74
2023/03/20 10:48:35;;;;;;;;;;;10.10;99.90;;;;;;4978985;28;20047;-75
2023/03/20 10:51:02;;;;;;;32.00;18.30;;;10.20;99.90;;;;;;4986960;28;19917;-75
2023/03/20 10:53:48;;;;;;;31.05;18.42;;;10.20;99.90;;;;;;4970966;28;20355;-74
2023/03/20 10:56:36;;;;;;;28.30;16.65;;;10.30;99.90;;;;;;4965814;28;20463;-75
2023/03/20 10:59:10;;;;;;;31.52;18.33;;;10.30;99.90;;;;;;4980594;28;20042;-74
2023/03/20 11:01:36;;;;;;;33.53;17.05;;;10.20;99.90;;;;;;4937606;28;20050;-75
2023/03/20 11:04:02;;;;;;;29.95;17.83;;;10.20;99.90;;;;;;4962253;28;20082;-74
2023/03/20 11:06:31;;;;;;;30.75;17.52;;;10.30;99.90;;;;;;4973058;28;20046;-74
2023/03/20 11:08:57;;;;;;;28.98;17.63;;;10.30;99.90;;;;;;4959017;28;20459;-75
2023/03/20 11:11:25;;;;;;;29.00;17.70;;;10.30;99.90;;;;;;4985662;28;20466;-74
2023/03/20 11:13:54;;;;;;;29.67;17.80;;;10.30;99.90;;;;;;4956701;28;20054;-74
2023/03/20 11:16:39;;;;;;;30.50;18.42;;;10.30;99.90;;;;;;4978869;28;20064;-74
2023/03/20 11:19:07;;;;;;;30.60;19.17;;;10.20;99.90;;;;;;4962723;28;20047;-74
2023/03/20 11:21:33;;;;;;;36.05;20.15;;;10.30;99.90;;;;;;4985210;28;20057;-74
2023/03/20 11:23:58;;;;;;;33.92;20.33;;;10.20;99.90;;;;;;4975123;28;20051;-75
2023/03/20 11:26:34;;;;;;;33.85;21.67;;;10.10;99.90;;;;;;4937355;28;20097;-74
2023/03/20 11:29:00;;;;;;;41.38;23.48;;;10.20;99.90;;;;;;4950401;28;20132;-75
2023/03/20 11:31:34;;;;;;;41.67;25.70;;;10.10;99.90;;;;;;4952367;28;20046;-75
2023/03/20 11:34:19;;;;;;;44.05;25.65;;;10.10;99.90;;;;;;4963604;28;20072;-75
2023/03/20 11:36:52;;;;;;;40.22;25.35;;;10.10;99.90;;;;;;4979191;28;20038;-75
2023/03/20 11:39:31;;;;;;;39.92;26.85;;;10.10;99.90;;;;;;4943346;28;20038;-74
2023/03/20 11:41:58;;;;;;;46.95;27.60;;;10.30;99.90;;;;;;4986829;28;20039;-74
2023/03/20 11:44:37;;;;;;;45.80;27.77;;;10.30;99.90;;;;;;4966927;28;20066;-74
2023/03/20 11:47:10;;;;;;;40.88;26.48;;;10.40;99.90;;;;;;4967030;28;20405;-74
2023/03/20 11:49:46;;;;;;;43.78;27.27;;;10.40;99.90;;;;;;4975399;28;20124;-75
2023/03/20 11:52:13;;;;;;;33.78;22.70;;;10.50;99.90;;;;;;4967828;28;20129;-75
2023/03/20 11:54:45;;;;;;;30.92;21.65;;;10.40;99.90;;;;;;4967862;28;20046;-74
2023/03/20 11:57:28;;;;;;;32.38;20.23;;;10.40;99.90;;;;;;4974275;28;20342;-75
2023/03/20 11:59:59;;;;;;;27.70;19.70;;;10.50;99.90;;;;;;4990382;28;20038;-74
2023/03/20 12:02:25;;;;;;;26.42;18.63;;;10.50;99.90;;;;;;4994553;28;20105;-75
2023/03/20 12:04:51;;;;;;;25.50;17.83;;;10.40;99.90;;;;;;4971950;28;20054;-75
2023/03/20 12:07:17;;;;;;;23.88;18.60;;;10.40;99.90;;;;;;4974453;28;20056;-76
2023/03/20 12:09:53;;;;;;;27.15;18.38;;;10.40;99.90;;;;;;4980671;28;20047;-74
2023/03/20 12:12:39;;;;;;;26.50;17.98;;;10.50;99.90;;;;;;4978676;28;20047;-75
2023/03/20 12:15:11;;;;;;;24.75;17.52;;;10.60;99.90;;;;;;4986008;28;20062;-74
2023/03/20 12:18:01;;;;;;;23.65;17.55;;;10.60;99.90;;;;;;4977619;28;20042;-74
2023/03/20 12:20:38;;;;;;;25.92;16.92;;;10.60;99.90;;;;;;4982568;28;20078;-74
2023/03/20 12:23:14;;;;;;;21.25;16.50;;;10.70;99.90;;;;;;4987215;28;20097;-75
2023/03/20 12:26:11;;;;;;;21.42;16.27;;;10.70;99.90;;;;;;4963147;28;20073;-75
2023/03/20 12:28:46;;;;;;;24.85;17.17;;;10.60;99.90;;;;;;4985130;28;20046;-75
2023/03/20 12:31:49;;;;;;;19.83;16.20;;;10.70;99.90;;;;;;4962779;28;20470;-74
2023/03/20 12:34:52;;;;;;;21.60;15.73;;;10.80;99.90;;;;;;4964128;28;20059;-74
2023/03/20 12:37:18;;;;;;;17.30;13.32;;;11.30;99.90;;;;;;4981926;28;20047;-74
2023/03/20 12:39:51;;;;;;;17.58;13.27;;;12.10;99.90;;;;;;4981190;28;20105;-75
2023/03/20 12:42:22;;;;;;;16.23;13.38;;;12.20;99.90;;;;;;4984660;28;20418;-75
2023/03/20 12:45:00;;;;;;;15.88;13.35;;;11.90;99.90;;;;;;4976006;28;20532;-75
2023/03/20 12:47:26;;;;;;;20.00;13.88;;;11.70;99.90;;;;;;4960395;28;20132;-74
2023/03/20 12:50:30;;;;;;;17.13;13.68;;;11.50;99.90;;;;;;4985885;28;20491;-75
2023/03/20 12:53:04;;;;;;;17.98;13.50;;;11.10;99.90;;;;;;4970854;28;20042;-76